createdAt,value
2019-05-11T00:00:29.456Z,93.0
2019-05-11T00:03:01.962Z,93.0
2019-05-11T00:03:45.321Z,93.0
2019-05-11T00:04:31.550Z,92.0
2019-05-11T00:05:12.644Z,92.0
2019-05-11T00:06:04.230Z,92.0
2019-05-11T00:08:03.817Z,91.0
2019-05-11T00:08:47.429Z,92.0
2019-05-11T00:09:37.407Z,91.0
2019-05-11T00:10:17.485Z,91.0
2019-05-11T00:11:29.959Z,91.0
2019-05-11T00:12:11.006Z,91.0
2019-05-11T00:12:45.895Z,91.0
2019-05-11T00:13:31.827Z,92.0
2019-05-11T00:14:56.941Z,90.0
2019-05-11T00:15:37.721Z,91.0
2019-05-11T00:17:37.559Z,91.0
2019-05-11T00:18:18.394Z,91.0
2019-05-11T00:18:58.442Z,90.0
2019-05-11T00:19:28.805Z,90.0
2019-05-11T00:20:11.442Z,91.0
2019-05-11T00:21:36.754Z,90.0
2019-05-11T00:22:17.899Z,90.0
2019-05-11T00:22:48.910Z,90.0
2019-05-11T00:23:43.736Z,90.0
2019-05-11T00:25:07.183Z,90.0
2019-05-11T00:25:50.134Z,90.0
2019-05-11T00:27:12.718Z,90.0
2019-05-11T00:27:58.501Z,90.0
2019-05-11T00:28:47.676Z,90.0
2019-05-11T00:29:27.960Z,90.0
2019-05-11T00:30:17.695Z,91.0
2019-05-11T00:30:55.024Z,91.0
2019-05-11T00:31:35.252Z,91.0
2019-05-11T00:32:52.333Z,91.0
2019-05-11T00:33:25.662Z,91.0
2019-05-11T00:34:46.920Z,91.0
2019-05-11T00:35:20.346Z,92.0
2019-05-11T00:36:00.876Z,92.0
2019-05-11T00:37:24.848Z,92.0
2019-05-11T00:38:05.809Z,91.0
2019-05-11T00:38:48.560Z,92.0
2019-05-11T00:39:30.261Z,92.0
2019-05-11T00:40:14.209Z,92.0
2019-05-11T00:41:33.332Z,92.0
2019-05-11T00:42:06.320Z,91.0
2019-05-11T00:42:48.861Z,91.0
2019-05-11T00:43:42.053Z,92.0
2019-05-11T00:44:15.171Z,91.0
2019-05-11T00:45:38.056Z,91.0
2019-05-11T00:46:19.451Z,91.0
2019-05-11T00:46:49.974Z,91.0
2019-05-11T00:47:30.231Z,91.0
2019-05-11T00:48:13.284Z,91.0
2019-05-11T00:48:56.277Z,91.0
2019-05-11T00:49:35.380Z,91.0
2019-05-11T00:50:16.748Z,90.0
2019-05-11T00:50:48.376Z,90.0
2019-05-11T00:51:18.193Z,90.0
2019-05-11T00:54:16.760Z,90.0
2019-05-11T00:55:38.351Z,90.0
2019-05-11T00:56:18.951Z,90.0
2019-05-11T00:56:48.928Z,90.0
2019-05-11T00:58:13.185Z,90.0
2019-05-11T01:02:24.975Z,89.0
2019-05-11T01:03:04.992Z,89.0
2019-05-11T01:03:55.026Z,89.0
2019-05-11T01:04:35.030Z,89.0
2019-05-11T01:05:15.261Z,90.0
2019-05-11T01:05:45.266Z,90.0
2019-05-11T01:06:25.289Z,89.0
2019-05-11T01:07:15.338Z,90.0
2019-05-11T01:08:45.372Z,90.0
2019-05-11T01:09:15.399Z,90.0
2019-05-11T01:09:55.385Z,90.0
2019-05-11T01:10:41.920Z,90.0
2019-05-11T01:11:25.406Z,90.0
2019-05-11T01:12:05.414Z,90.0
2019-05-11T01:12:45.422Z,90.0
2019-05-11T01:13:35.469Z,90.0
2019-05-11T01:14:15.471Z,91.0
2019-05-11T01:14:55.501Z,91.0
2019-05-11T01:15:35.513Z,91.0
2019-05-11T01:16:15.516Z,90.0
2019-05-11T01:16:45.542Z,90.0
2019-05-11T01:17:25.536Z,90.0
2019-05-11T01:18:05.545Z,90.0
2019-05-11T01:18:55.566Z,90.0
2019-05-11T01:19:25.561Z,90.0
2019-05-11T01:20:05.580Z,90.0
2019-05-11T01:20:45.591Z,89.0
2019-05-11T01:21:25.601Z,90.0
2019-05-11T01:22:05.633Z,90.0
2019-05-11T01:22:45.615Z,90.0
2019-05-11T01:23:25.629Z,90.0
2019-05-11T01:24:05.640Z,90.0
2019-05-11T01:24:45.657Z,89.0
2019-05-11T01:25:15.675Z,89.0
2019-05-11T01:25:45.674Z,89.0
2019-05-11T01:27:05.697Z,90.0
2019-05-11T01:27:45.716Z,89.0
2019-05-11T01:28:35.716Z,89.0
2019-05-11T01:29:15.730Z,90.0
2019-05-11T01:30:38.588Z,90.0
2019-05-11T01:31:15.759Z,91.0
2019-05-11T01:31:45.771Z,90.0
2019-05-11T01:33:05.804Z,90.0
2019-05-11T01:34:35.838Z,89.0
2019-05-11T01:35:15.821Z,89.0
2019-05-11T01:35:45.815Z,89.0
2019-05-11T01:37:05.839Z,89.0
2019-05-11T01:37:45.858Z,90.0
2019-05-11T01:38:35.889Z,90.0
2019-05-11T01:39:15.946Z,90.0
2019-05-11T01:40:35.888Z,90.0
2019-05-11T01:41:15.913Z,90.0
2019-05-11T01:41:45.955Z,90.0
2019-05-11T01:43:05.951Z,90.0
2019-05-11T01:45:05.984Z,90.0
2019-05-11T01:56:06.136Z,92.0
2019-05-11T01:56:46.147Z,92.0
2019-05-11T01:58:06.176Z,92.0
2019-05-11T01:59:36.210Z,92.0
2019-05-11T02:01:06.217Z,91.0
2019-05-11T02:01:46.226Z,92.0
2019-05-11T02:02:16.251Z,92.0
2019-05-11T02:34:06.915Z,95.0
2019-05-11T02:34:46.915Z,95.0
2019-05-11T02:35:16.941Z,95.0
2019-05-11T02:36:37.013Z,95.0
2019-05-11T02:38:47.012Z,95.0
2019-05-11T02:39:17.026Z,95.0
2019-05-11T02:40:37.078Z,94.0
2019-05-11T02:41:35.954Z,94.0
2019-05-11T02:42:37.151Z,94.0
2019-05-11T02:50:27.308Z,95.0
2019-05-11T03:04:17.644Z,96.0
2019-05-11T03:04:57.657Z,96.0
2019-05-11T03:06:27.681Z,96.0
2019-05-11T03:07:07.678Z,96.0
2019-05-11T03:07:47.730Z,96.0
2019-05-11T03:08:37.715Z,96.0
2019-05-11T03:09:17.729Z,96.0
2019-05-11T03:09:47.746Z,96.0
2019-05-11T03:10:27.768Z,96.0
2019-05-11T03:11:07.800Z,96.0
2019-05-11T03:11:55.299Z,95.0
2019-05-11T03:12:27.823Z,95.0
2019-05-11T03:13:17.845Z,95.0
2019-05-11T03:13:57.878Z,95.0
2019-05-11T03:14:37.879Z,95.0
2019-05-11T03:15:17.893Z,94.0
2019-05-11T03:15:57.900Z,94.0
2019-05-11T03:16:37.928Z,94.0
2019-05-11T03:17:17.940Z,94.0
2019-05-11T03:17:57.987Z,94.0
2019-05-11T03:18:48.005Z,94.0
2019-05-11T03:19:38.026Z,94.0
2019-05-11T03:20:18.059Z,94.0
2019-05-11T03:20:48.077Z,94.0
2019-05-11T03:21:38.081Z,94.0
2019-05-11T03:22:18.090Z,94.0
2019-05-11T03:22:48.080Z,94.0
2019-05-11T03:23:48.111Z,94.0
2019-05-11T03:24:28.219Z,94.0
2019-05-11T03:25:08.201Z,94.0
2019-05-11T03:25:48.209Z,94.0
2019-05-11T03:26:38.224Z,94.0
2019-05-11T03:27:18.331Z,94.0
2019-05-11T03:27:48.244Z,94.0
2019-05-11T03:28:58.310Z,94.0
2019-05-11T03:29:38.293Z,95.0
2019-05-11T03:30:18.328Z,95.0
2019-05-11T03:31:08.328Z,95.0
2019-05-11T03:31:48.347Z,95.0
2019-05-11T03:32:38.364Z,95.0
2019-05-11T03:33:18.437Z,95.0
2019-05-11T03:33:48.384Z,95.0
2019-05-11T03:34:38.418Z,95.0
2019-05-11T03:35:18.470Z,96.0
2019-05-11T03:36:08.475Z,96.0
2019-05-11T03:36:48.489Z,96.0
2019-05-11T03:37:38.516Z,96.0
2019-05-11T03:38:18.525Z,96.0
2019-05-11T03:38:48.531Z,96.0
2019-05-11T03:39:38.540Z,96.0
2019-05-11T03:40:18.560Z,96.0
2019-05-11T03:41:08.589Z,96.0
2019-05-11T03:41:48.595Z,96.0
2019-05-11T03:42:38.625Z,96.0
2019-05-11T03:43:18.662Z,97.0
2019-05-11T03:43:48.706Z,97.0
2019-05-11T03:44:28.675Z,97.0
2019-05-11T03:45:08.705Z,97.0
2019-05-11T03:46:08.746Z,97.0
2019-05-11T03:46:48.754Z,97.0
2019-05-11T03:47:28.804Z,97.0
2019-05-11T03:48:08.884Z,97.0
2019-05-11T03:48:48.910Z,97.0
2019-05-11T03:49:28.941Z,97.0
2019-05-11T03:50:08.933Z,97.0
2019-05-11T03:51:08.951Z,97.0
2019-05-11T03:51:48.956Z,97.0
2019-05-11T03:52:28.965Z,97.0
2019-05-11T03:53:08.979Z,98.0
2019-05-11T03:53:49.001Z,98.0
2019-05-11T03:54:29.027Z,97.0
2019-05-11T03:55:09.011Z,97.0
2019-05-11T03:56:09.023Z,97.0
2019-05-11T03:56:49.020Z,97.0
2019-05-11T03:57:29.046Z,97.0
2019-05-11T03:58:09.047Z,97.0
2019-05-11T03:58:49.058Z,97.0
2019-05-11T03:59:29.147Z,97.0
2019-05-11T04:00:09.086Z,97.0
2019-05-11T04:01:09.113Z,97.0
2019-05-11T04:01:49.121Z,97.0
2019-05-11T04:02:29.148Z,97.0
2019-05-11T04:03:09.168Z,97.0
2019-05-11T04:03:49.181Z,97.0
2019-05-11T04:04:29.210Z,97.0
2019-05-11T04:05:09.228Z,97.0
2019-05-11T04:06:09.320Z,97.0
2019-05-11T04:06:49.279Z,97.0
2019-05-11T04:07:19.316Z,97.0
2019-05-11T04:07:59.363Z,97.0
2019-05-11T04:08:29.337Z,96.0
2019-05-11T04:09:09.366Z,96.0
2019-05-11T04:09:49.356Z,96.0
2019-05-11T04:10:49.386Z,97.0
2019-05-11T04:11:29.458Z,97.0
2019-05-11T04:12:09.478Z,97.0
2019-05-11T04:12:49.460Z,97.0
2019-05-11T04:13:19.475Z,97.0
2019-05-11T04:13:59.520Z,97.0
2019-05-11T04:14:39.503Z,97.0
2019-05-11T04:15:39.524Z,97.0
2019-05-11T04:16:19.527Z,97.0
2019-05-11T04:16:59.565Z,97.0
2019-05-11T04:17:49.648Z,97.0
2019-05-11T04:18:29.714Z,97.0
2019-05-11T04:19:09.672Z,97.0
2019-05-11T04:19:49.673Z,97.0
2019-05-11T04:20:29.680Z,97.0
2019-05-11T04:21:09.687Z,97.0
2019-05-11T04:21:39.705Z,97.0
2019-05-11T04:22:19.719Z,97.0
2019-05-11T04:22:49.723Z,97.0
2019-05-11T04:23:29.794Z,97.0
2019-05-11T04:24:09.873Z,97.0
2019-05-11T04:24:49.880Z,97.0
2019-05-11T04:25:39.844Z,97.0
2019-05-11T04:26:19.864Z,97.0
2019-05-11T04:26:59.885Z,97.0
2019-05-11T04:27:39.878Z,97.0
2019-05-11T04:28:19.891Z,97.0
2019-05-11T04:28:49.900Z,97.0
2019-05-11T04:29:29.917Z,97.0
2019-05-11T04:30:09.902Z,97.0
2019-05-11T04:30:59.930Z,97.0
2019-05-11T04:31:39.938Z,97.0
2019-05-11T04:32:19.949Z,97.0
2019-05-11T04:32:49.956Z,97.0
2019-05-11T04:33:32.926Z,97.0
2019-05-11T04:34:09.964Z,97.0
2019-05-11T04:34:49.971Z,97.0
2019-05-11T04:35:39.997Z,97.0
2019-05-11T04:36:19.997Z,97.0
2019-05-11T04:37:00.018Z,96.0
2019-05-11T04:37:40.032Z,96.0
2019-05-11T04:38:20.069Z,96.0
2019-05-11T04:38:50.065Z,96.0
2019-05-11T04:39:30.079Z,96.0
2019-05-11T04:40:10.135Z,96.0
2019-05-11T04:41:00.120Z,96.0
2019-05-11T04:41:40.145Z,96.0
2019-05-11T04:42:20.145Z,96.0
2019-05-11T04:42:54.771Z,96.0
2019-05-11T04:43:30.162Z,96.0
2019-05-11T04:44:10.184Z,96.0
2019-05-11T04:44:52.368Z,96.0
2019-05-11T04:45:40.194Z,96.0
2019-05-11T04:46:20.226Z,96.0
2019-05-11T04:47:00.261Z,96.0
2019-05-11T04:47:40.268Z,96.0
2019-05-11T04:48:20.276Z,96.0
2019-05-11T04:48:50.290Z,96.0
2019-05-11T04:49:30.301Z,96.0
2019-05-11T04:50:10.310Z,96.0
2019-05-11T04:51:00.337Z,96.0
2019-05-11T04:51:40.336Z,96.0
2019-05-11T04:52:20.382Z,96.0
2019-05-11T04:52:50.360Z,96.0
2019-05-11T04:53:30.400Z,96.0
2019-05-11T04:54:10.418Z,96.0
2019-05-11T04:54:50.423Z,96.0
2019-05-11T04:55:40.488Z,96.0
2019-05-11T04:56:20.471Z,96.0
2019-05-11T04:57:00.494Z,95.0
2019-05-11T04:57:40.484Z,95.0
2019-05-11T04:58:20.499Z,95.0
2019-05-11T04:58:50.511Z,95.0
2019-05-11T04:59:30.592Z,95.0
2019-05-11T05:00:10.591Z,95.0
2019-05-11T05:01:10.608Z,95.0
2019-05-11T05:01:50.647Z,95.0
2019-05-11T05:02:30.677Z,95.0
2019-05-11T05:03:10.656Z,95.0
2019-05-11T05:03:53.849Z,95.0
2019-05-11T05:04:20.689Z,95.0
2019-05-11T05:05:00.724Z,95.0
2019-05-11T05:06:20.753Z,94.0
2019-05-11T05:06:40.774Z,93.0
2019-05-11T05:07:20.796Z,93.0
2019-05-11T05:08:08.899Z,93.0
2019-05-11T05:08:50.817Z,92.0
2019-05-11T05:09:35.791Z,92.0
2019-05-11T05:10:13.863Z,92.0
2019-05-11T05:10:52.277Z,92.0
2019-05-11T05:11:20.854Z,92.0
2019-05-11T05:12:00.869Z,92.0
2019-05-11T05:12:40.897Z,92.0
2019-05-11T05:13:23.203Z,91.0
2019-05-11T05:14:01.710Z,92.0
2019-05-11T05:14:50.935Z,92.0
2019-05-11T05:15:40.955Z,91.0
2019-05-11T05:16:20.964Z,91.0
2019-05-11T05:17:01.004Z,91.0
2019-05-11T05:17:40.995Z,91.0
2019-05-11T05:18:21.018Z,91.0
2019-05-11T05:18:51.036Z,91.0
2019-05-11T05:19:31.071Z,91.0
2019-05-11T05:20:11.076Z,90.0
2019-05-11T05:21:01.165Z,90.0
2019-05-11T05:21:41.295Z,90.0
2019-05-11T05:22:21.173Z,90.0
2019-05-11T05:22:51.193Z,90.0
2019-05-11T05:23:31.217Z,91.0
2019-05-11T05:24:11.242Z,91.0
2019-05-11T05:24:51.248Z,90.0
2019-05-11T05:25:31.310Z,90.0
2019-05-11T05:26:11.326Z,90.0
2019-05-11T05:26:51.317Z,91.0
2019-05-11T05:27:21.336Z,90.0
2019-05-11T05:28:01.355Z,89.0
2019-05-11T05:28:41.385Z,89.0
2019-05-11T05:29:21.418Z,89.0
2019-05-11T05:30:01.387Z,89.0
2019-05-11T05:31:01.562Z,90.0
2019-05-11T05:31:41.522Z,89.0
2019-05-11T05:32:21.529Z,89.0
2019-05-11T05:32:51.543Z,89.0
2019-05-11T05:33:31.596Z,89.0
2019-05-11T05:34:11.596Z,89.0
2019-05-11T05:35:01.628Z,88.0
2019-05-11T05:36:01.613Z,89.0
2019-05-11T05:36:41.646Z,89.0
2019-05-11T05:37:21.626Z,89.0
2019-05-11T05:38:01.657Z,89.0
2019-05-11T05:38:41.644Z,89.0
2019-05-11T05:39:21.658Z,89.0
2019-05-11T05:39:51.671Z,89.0
2019-05-11T05:40:51.683Z,89.0
2019-05-11T05:41:31.701Z,89.0
2019-05-11T05:42:11.715Z,89.0
2019-05-11T05:43:01.738Z,89.0
2019-05-11T05:43:41.750Z,89.0
2019-05-11T05:44:21.773Z,89.0
2019-05-11T05:45:01.815Z,89.0
2019-05-11T05:46:01.894Z,89.0
2019-05-11T05:46:41.841Z,89.0
2019-05-11T05:47:21.856Z,89.0
2019-05-11T05:47:51.882Z,90.0
2019-05-11T05:48:31.871Z,90.0
2019-05-11T05:49:11.876Z,90.0
2019-05-11T05:50:01.951Z,89.0
2019-05-11T05:51:01.963Z,90.0
2019-05-11T05:51:41.974Z,89.0
2019-05-11T05:52:22.011Z,89.0
2019-05-11T05:53:01.994Z,90.0
2019-05-11T05:53:42.005Z,90.0
2019-05-11T05:54:22.018Z,90.0
2019-05-11T05:54:52.035Z,89.0
2019-05-11T05:55:52.046Z,89.0
2019-05-11T05:56:32.103Z,89.0
2019-05-11T05:57:12.106Z,89.0
2019-05-11T05:58:02.116Z,89.0
2019-05-11T05:58:42.117Z,90.0
2019-05-11T05:59:22.135Z,89.0
2019-05-11T06:00:02.161Z,89.0
2019-05-11T06:01:02.183Z,89.0
2019-05-11T06:01:42.193Z,89.0
2019-05-11T06:02:22.237Z,89.0
2019-05-11T06:02:52.243Z,89.0
2019-05-11T06:03:32.247Z,87.0
2019-05-11T06:04:12.286Z,87.0
2019-05-11T06:05:02.315Z,86.0
2019-05-11T06:06:02.317Z,86.0
2019-05-11T06:06:42.331Z,86.0
2019-05-11T06:07:22.357Z,86.0
2019-05-11T06:07:52.338Z,86.0
2019-05-11T06:08:32.359Z,86.0
2019-05-11T06:09:12.362Z,86.0
2019-05-11T06:10:02.394Z,86.0
2019-05-11T06:11:02.419Z,86.0
2019-05-11T06:11:42.445Z,86.0
2019-05-11T06:12:22.449Z,86.0
2019-05-11T06:12:52.459Z,85.0
2019-05-11T06:13:44.330Z,85.0
2019-05-11T06:14:12.530Z,85.0
2019-05-11T06:15:02.506Z,86.0
2019-05-11T06:16:02.563Z,86.0
2019-05-11T06:16:42.558Z,86.0
2019-05-11T06:17:22.569Z,86.0
2019-05-11T06:18:02.586Z,86.0
2019-05-11T06:18:42.594Z,86.0
2019-05-11T06:19:22.617Z,86.0
2019-05-11T06:19:52.621Z,84.0
2019-05-11T06:20:52.635Z,85.0
2019-05-11T06:21:32.768Z,85.0
2019-05-11T06:22:12.688Z,84.0
2019-05-11T06:23:02.787Z,85.0
2019-05-11T06:23:42.767Z,84.0
2019-05-11T06:24:22.827Z,84.0
2019-05-11T06:24:52.868Z,84.0
2019-05-11T06:25:52.903Z,84.0
2019-05-11T06:26:32.890Z,84.0
2019-05-11T06:27:12.904Z,84.0
2019-05-11T06:28:03.136Z,83.0
2019-05-11T06:28:43.023Z,82.0
2019-05-11T06:29:23.073Z,82.0
2019-05-11T06:31:43.228Z,81.0
2019-05-11T06:32:23.260Z,81.0
2019-05-11T06:33:43.283Z,81.0
2019-05-11T06:34:23.295Z,81.0
2019-05-11T06:35:23.322Z,81.0
2019-05-11T06:36:43.383Z,81.0
2019-05-11T06:37:23.392Z,81.0
2019-05-11T06:38:43.448Z,79.0
2019-05-11T06:39:23.474Z,79.0
2019-05-11T06:40:23.478Z,80.0
2019-05-11T06:41:43.499Z,80.0
2019-05-11T06:42:23.516Z,80.0
2019-05-11T06:43:43.536Z,79.0
2019-05-11T06:44:23.549Z,80.0
2019-05-11T06:45:23.573Z,80.0
2019-05-11T06:46:43.633Z,81.0
2019-05-11T06:47:23.618Z,80.0
2019-05-11T06:48:43.715Z,81.0
2019-05-11T06:49:23.707Z,81.0
2019-05-11T06:50:23.714Z,81.0
2019-05-11T06:51:43.761Z,82.0
2019-05-11T06:52:23.766Z,82.0
2019-05-11T06:53:43.828Z,82.0
2019-05-11T06:54:23.825Z,82.0
2019-05-11T06:55:23.842Z,82.0
2019-05-11T06:56:43.877Z,82.0
2019-05-11T06:57:23.882Z,82.0
2019-05-11T06:58:45.534Z,83.0
2019-05-11T06:59:23.981Z,82.0
2019-05-11T07:00:24.010Z,83.0
2019-05-11T07:02:44.041Z,83.0
2019-05-11T07:03:24.047Z,83.0
2019-05-11T07:04:44.050Z,82.0
2019-05-11T07:05:24.073Z,83.0
2019-05-11T07:07:47.364Z,83.0
2019-05-11T07:08:24.120Z,83.0
2019-05-11T07:09:44.153Z,83.0
2019-05-11T07:10:24.167Z,82.0
2019-05-11T07:12:44.208Z,82.0
2019-05-11T07:13:24.232Z,81.0
2019-05-11T07:14:44.259Z,80.0
2019-05-11T07:15:24.294Z,79.0
2019-05-11T07:17:44.381Z,79.0
2019-05-11T07:18:24.329Z,79.0
2019-05-11T07:19:47.249Z,78.0
2019-05-11T07:20:24.351Z,78.0
2019-05-11T07:22:44.425Z,78.0
2019-05-11T07:23:24.436Z,78.0
2019-05-11T07:24:44.498Z,79.0
2019-05-11T07:25:24.462Z,79.0
2019-05-11T07:26:44.515Z,79.0
2019-05-11T07:27:24.545Z,79.0
2019-05-11T07:28:44.562Z,79.0
2019-05-11T07:29:24.580Z,78.0
2019-05-11T07:30:44.595Z,78.0
2019-05-11T07:31:44.635Z,79.0
2019-05-11T07:32:25.995Z,78.0
2019-05-11T07:33:44.753Z,78.0
2019-05-11T07:34:24.774Z,78.0
2019-05-11T07:35:14.784Z,78.0
2019-05-11T07:35:54.774Z,79.0
2019-05-11T07:36:44.818Z,79.0
2019-05-11T07:37:24.825Z,78.0
2019-05-11T07:38:14.857Z,78.0
2019-05-11T07:38:54.858Z,78.0
2019-05-11T07:39:24.874Z,77.0
2019-05-11T07:40:14.916Z,77.0
2019-05-11T07:40:54.887Z,77.0
2019-05-11T07:41:44.902Z,77.0
2019-05-11T07:42:24.913Z,77.0
2019-05-11T07:43:14.914Z,77.0
2019-05-11T07:43:54.924Z,78.0
2019-05-11T07:44:35.688Z,78.0
2019-05-11T07:45:44.961Z,78.0
2019-05-11T07:46:45.023Z,78.0
2019-05-11T07:47:25.028Z,77.0
2019-05-11T07:48:05.037Z,77.0
2019-05-11T07:48:45.040Z,77.0
2019-05-11T07:49:25.066Z,78.0
2019-05-11T07:50:05.066Z,77.0
2019-05-11T07:50:45.073Z,77.0
2019-05-11T07:51:45.127Z,78.0
2019-05-11T07:52:25.118Z,78.0
2019-05-11T07:53:45.167Z,77.0
2019-05-11T07:54:25.166Z,77.0
2019-05-11T07:55:45.187Z,77.0
2019-05-11T07:56:45.204Z,78.0
2019-05-11T07:57:25.244Z,78.0
2019-05-11T07:57:55.250Z,78.0
2019-05-11T07:59:15.273Z,79.0
2019-05-11T07:59:57.263Z,78.0
2019-05-11T08:01:47.633Z,78.0
2019-05-11T08:02:25.331Z,78.0
2019-05-11T08:03:45.356Z,79.0
2019-05-11T08:04:25.379Z,79.0
2019-05-11T08:04:55.376Z,79.0
2019-05-11T08:07:25.435Z,79.0
2019-05-11T08:08:45.505Z,79.0
2019-05-11T08:09:27.518Z,79.0
2019-05-11T08:10:48.011Z,79.0
2019-05-11T08:11:47.560Z,79.0
2019-05-11T08:12:25.542Z,79.0
2019-05-11T08:12:55.560Z,79.0
2019-05-11T08:14:18.012Z,79.0
2019-05-11T08:15:00.970Z,79.0
2019-05-11T08:16:47.946Z,79.0
2019-05-11T08:17:25.639Z,79.0
2019-05-11T08:18:05.672Z,79.0
2019-05-11T08:18:48.007Z,78.0
2019-05-11T08:19:27.975Z,78.0
2019-05-11T08:19:57.824Z,78.0
2019-05-11T08:22:25.742Z,78.0
2019-05-11T08:23:47.647Z,78.0
2019-05-11T08:24:26.311Z,78.0
2019-05-11T08:25:48.339Z,79.0
2019-05-11T08:26:47.979Z,79.0
2019-05-11T08:27:25.923Z,78.0
2019-05-11T08:27:55.926Z,78.0
2019-05-11T08:29:17.957Z,78.0
2019-05-11T08:29:57.955Z,77.0
2019-05-11T08:31:45.984Z,77.0
2019-05-11T08:32:28.358Z,78.0
2019-05-11T08:33:47.975Z,78.0
2019-05-11T08:34:28.313Z,77.0
2019-05-11T08:34:58.018Z,77.0
2019-05-11T08:37:28.094Z,75.0
2019-05-11T08:38:48.178Z,76.0
2019-05-11T08:39:28.559Z,76.0
2019-05-11T08:42:17.827Z,75.0
2019-05-11T08:42:58.245Z,75.0
2019-05-11T08:44:18.153Z,74.0
2019-05-11T08:45:11.571Z,74.0
2019-05-11T08:45:27.925Z,75.0
2019-05-11T08:46:27.888Z,75.0
2019-05-11T08:47:48.430Z,76.0
2019-05-11T08:48:28.232Z,74.0
2019-05-11T08:50:18.399Z,74.0
2019-05-11T08:50:58.155Z,73.0
2019-05-11T08:51:57.808Z,73.0
2019-05-11T08:53:17.810Z,75.0
2019-05-11T08:53:58.311Z,74.0
2019-05-11T08:54:28.566Z,75.0
2019-05-11T08:55:48.507Z,73.0
2019-05-11T08:56:48.604Z,73.0
2019-05-11T08:57:28.483Z,74.0
2019-05-11T08:59:18.605Z,74.0
2019-05-11T08:59:57.840Z,72.0
2019-05-11T09:02:18.563Z,74.0
2019-05-11T09:02:58.206Z,73.0
2019-05-11T09:03:28.375Z,73.0
2019-05-11T09:04:48.334Z,74.0
2019-05-11T09:05:27.971Z,73.0
2019-05-11T09:06:28.353Z,74.0
2019-05-11T09:07:48.342Z,74.0
2019-05-11T09:08:28.221Z,73.0
2019-05-11T09:08:58.275Z,73.0
2019-05-11T09:10:18.515Z,74.0
2019-05-11T09:10:58.164Z,74.0
2019-05-11T09:11:58.801Z,74.0
2019-05-11T09:13:27.875Z,75.0
2019-05-11T09:14:47.806Z,75.0
2019-05-11T09:15:33.291Z,75.0
2019-05-11T09:16:18.916Z,76.0
2019-05-11T09:16:57.720Z,74.0
2019-05-11T09:18:18.708Z,75.0
2019-05-11T09:18:58.082Z,75.0
2019-05-11T09:20:28.459Z,75.0
2019-05-11T09:21:28.106Z,75.0
2019-05-11T09:22:48.441Z,76.0
2019-05-11T09:24:18.898Z,75.0
2019-05-11T09:24:58.229Z,75.0
2019-05-11T09:25:27.804Z,76.0
2019-05-11T09:26:28.576Z,76.0
2019-05-11T09:27:07.830Z,75.0
2019-05-11T09:27:48.175Z,75.0
2019-05-11T09:29:17.899Z,75.0
2019-05-11T09:29:58.657Z,75.0
2019-05-11T09:33:20.031Z,75.0
2019-05-11T09:33:58.359Z,75.0
2019-05-11T09:34:28.799Z,75.0
2019-05-11T09:35:52.484Z,76.0
2019-05-11T09:36:47.942Z,75.0
2019-05-11T09:38:18.524Z,75.0
2019-05-11T09:38:58.095Z,75.0
2019-05-11T09:40:18.199Z,76.0
2019-05-11T09:40:58.545Z,76.0
2019-05-11T09:41:48.785Z,76.0
2019-05-11T09:42:28.528Z,77.0
2019-05-11T09:43:48.263Z,77.0
2019-05-11T09:45:18.605Z,77.0
2019-05-11T09:45:58.201Z,77.0
2019-05-11T09:46:47.937Z,77.0
2019-05-11T09:47:27.989Z,77.0
2019-05-11T09:48:48.301Z,78.0
2019-05-11T09:50:18.036Z,79.0
2019-05-11T09:50:58.711Z,81.0
2019-05-11T09:51:58.876Z,80.0
2019-05-11T09:53:17.877Z,80.0
2019-05-11T09:53:58.705Z,80.0
2019-05-11T09:54:28.893Z,79.0
2019-05-11T09:55:48.235Z,80.0
2019-05-11T09:56:48.594Z,81.0
2019-05-11T09:58:19.611Z,82.0
2019-05-11T09:58:58.211Z,82.0
2019-05-11T10:00:18.081Z,82.0
2019-05-11T10:01:18.501Z,83.0
2019-05-11T10:01:58.900Z,81.0
2019-05-11T10:02:28.169Z,80.0
2019-05-11T10:03:08.370Z,81.0
2019-05-11T10:03:48.432Z,82.0
2019-05-11T10:05:18.911Z,82.0
2019-05-11T10:06:18.914Z,82.0
2019-05-11T10:06:58.584Z,83.0
2019-05-11T10:08:18.428Z,84.0
2019-05-11T10:08:58.215Z,83.0
2019-05-11T10:09:28.251Z,83.0
2019-05-11T10:10:48.860Z,85.0
2019-05-11T10:11:48.240Z,83.0
2019-05-11T10:13:18.627Z,83.0
2019-05-11T10:13:58.313Z,84.0
2019-05-11T10:15:18.778Z,82.0
2019-05-11T10:16:18.342Z,80.0
2019-05-11T10:16:58.605Z,82.0
2019-05-11T10:17:28.831Z,83.0
2019-05-11T10:18:49.282Z,82.0
2019-05-11T10:20:18.425Z,83.0
2019-05-11T10:21:18.881Z,83.0
2019-05-11T10:21:58.451Z,80.0
2019-05-11T10:22:28.470Z,82.0
2019-05-11T10:23:48.853Z,81.0
2019-05-11T10:25:18.538Z,79.0
2019-05-11T10:26:18.831Z,78.0
2019-05-11T10:26:58.579Z,78.0
2019-05-11T10:28:18.604Z,79.0
2019-05-11T10:28:58.648Z,77.0
2019-05-11T10:29:28.974Z,77.0
2019-05-11T10:30:48.836Z,76.0
2019-05-11T10:31:48.657Z,77.0
2019-05-11T10:33:18.908Z,78.0
2019-05-11T10:33:58.683Z,79.0
2019-05-11T10:34:28.765Z,77.0
2019-05-11T10:35:48.719Z,77.0
2019-05-11T10:36:48.827Z,77.0
2019-05-11T10:38:18.753Z,78.0
2019-05-11T10:38:58.979Z,77.0
2019-05-11T10:39:28.817Z,77.0
2019-05-11T10:40:48.832Z,77.0
2019-05-11T10:41:48.857Z,76.0
2019-05-11T10:43:18.893Z,76.0
2019-05-11T10:43:58.953Z,76.0
2019-05-11T10:45:18.997Z,78.0
2019-05-11T10:46:22.421Z,78.0
2019-05-11T10:46:59.117Z,74.0
2019-05-11T10:47:29.095Z,74.0
2019-05-11T10:48:49.092Z,74.0
2019-05-11T10:49:29.122Z,75.0
2019-05-11T10:49:59.165Z,76.0
2019-05-11T10:52:19.193Z,74.0
2019-05-11T10:52:59.273Z,71.0
2019-05-11T10:53:51.891Z,71.0
2019-05-11T10:54:29.240Z,72.0
2019-05-11T10:54:59.261Z,72.0
2019-05-11T10:55:49.252Z,72.0
2019-05-11T10:56:49.258Z,72.0
2019-05-11T10:57:29.278Z,73.0
2019-05-11T10:57:59.277Z,73.0
2019-05-11T10:58:49.367Z,74.0
2019-05-11T10:59:29.319Z,75.0
2019-05-11T11:00:19.331Z,75.0
2019-05-11T11:01:19.341Z,74.0
2019-05-11T11:01:59.355Z,74.0
2019-05-11T11:03:19.398Z,74.0
2019-05-11T11:03:59.406Z,75.0
2019-05-11T11:05:19.452Z,72.0
2019-05-11T11:06:19.473Z,74.0
2019-05-11T11:06:59.476Z,74.0
2019-05-11T11:08:19.516Z,74.0
2019-05-11T11:08:59.528Z,75.0
2019-05-11T11:10:19.569Z,74.0
2019-05-11T11:11:19.568Z,74.0
2019-05-11T11:11:59.578Z,73.0
2019-05-11T11:13:19.669Z,74.0
2019-05-11T11:13:59.605Z,74.0
2019-05-11T11:15:19.635Z,74.0
2019-05-11T11:16:34.845Z,74.0
2019-05-11T11:16:59.661Z,75.0
2019-05-11T11:18:19.709Z,74.0
2019-05-11T11:18:59.719Z,74.0
2019-05-11T11:20:19.741Z,74.0
2019-05-11T11:21:22.762Z,76.0
2019-05-11T11:22:22.443Z,76.0
2019-05-11T11:23:19.797Z,75.0
2019-05-11T11:23:59.814Z,76.0
2019-05-11T11:25:19.827Z,76.0
2019-05-11T11:26:19.846Z,76.0
2019-05-11T11:26:59.851Z,75.0
2019-05-11T11:28:19.885Z,76.0
2019-05-11T11:28:59.933Z,76.0
2019-05-11T11:29:39.967Z,76.0
2019-05-11T11:30:19.910Z,76.0
2019-05-11T11:31:19.923Z,75.0
2019-05-11T11:31:59.975Z,75.0
2019-05-11T11:33:19.997Z,74.0
2019-05-11T11:34:00.005Z,75.0
2019-05-11T11:35:20.036Z,73.0
2019-05-11T11:36:20.078Z,72.0
2019-05-11T11:37:00.055Z,73.0
2019-05-11T11:38:20.106Z,74.0
2019-05-11T11:39:00.098Z,72.0
2019-05-11T11:40:20.132Z,74.0
2019-05-11T11:41:20.195Z,73.0
2019-05-11T11:42:00.147Z,74.0
2019-05-11T11:43:20.184Z,73.0
2019-05-11T11:44:00.197Z,72.0
2019-05-11T11:45:20.230Z,73.0
2019-05-11T11:46:20.266Z,73.0
2019-05-11T11:47:00.363Z,73.0
2019-05-11T11:48:20.302Z,72.0
2019-05-11T11:49:00.308Z,73.0
2019-05-11T11:50:20.369Z,72.0
2019-05-11T11:51:20.385Z,73.0
2019-05-11T11:52:00.444Z,73.0
2019-05-11T11:53:20.469Z,72.0
2019-05-11T11:54:00.473Z,72.0
2019-05-11T11:55:20.505Z,72.0
2019-05-11T11:56:20.510Z,72.0
2019-05-11T11:57:00.516Z,72.0
2019-05-11T11:58:23.688Z,73.0
2019-05-11T11:59:00.539Z,73.0
2019-05-11T12:00:20.576Z,74.0
2019-05-11T12:01:20.589Z,74.0
2019-05-11T12:02:00.620Z,75.0
2019-05-11T12:02:30.621Z,74.0
2019-05-11T12:04:20.676Z,74.0
2019-05-11T12:05:00.679Z,74.0
2019-05-11T12:06:00.756Z,74.0
2019-05-11T12:07:20.719Z,74.0
2019-05-11T12:08:00.727Z,75.0
2019-05-11T12:09:20.736Z,75.0
2019-05-11T12:10:00.759Z,75.0
2019-05-11T12:11:00.791Z,76.0
2019-05-11T12:12:20.832Z,75.0
2019-05-11T12:13:00.821Z,76.0
2019-05-11T12:14:20.883Z,76.0
2019-05-11T12:15:00.902Z,76.0
2019-05-11T12:16:00.904Z,76.0
2019-05-11T12:17:20.947Z,77.0
2019-05-11T12:18:00.945Z,77.0
2019-05-11T12:18:41.145Z,77.0
2019-05-11T12:19:20.969Z,77.0
2019-05-11T12:20:00.984Z,76.0
2019-05-11T12:21:01.010Z,76.0
2019-05-11T12:22:21.014Z,76.0
2019-05-11T12:23:01.025Z,77.0
2019-05-11T12:23:31.040Z,77.0
2019-05-11T12:25:21.071Z,77.0
2019-05-11T12:26:21.089Z,77.0
2019-05-11T12:27:01.095Z,77.0
2019-05-11T12:27:31.091Z,76.0
2019-05-11T12:28:51.185Z,76.0
2019-05-11T12:29:31.211Z,77.0
2019-05-11T12:31:21.234Z,77.0
2019-05-11T12:32:01.247Z,76.0
2019-05-11T12:33:21.247Z,77.0
2019-05-11T12:34:01.258Z,77.0
2019-05-11T12:34:31.265Z,77.0
2019-05-11T12:37:01.325Z,77.0
2019-05-11T12:38:21.338Z,77.0